Time;durP1;ratioP1;P1;durP2;ratioP2;P2;SDS_P1;SDS_P2;PMS_P1;PMS_P2;Temp;Humidity;BMP_temperature;BMP_pressure;BME280_temperature;BME280_humidity;BME280_pressure;Samples;Min_cycle;Max_cycle;Signal;HPM_P1;HPM_P2
2023/11/10 00:00:00;;;;;;;3.67;1.50;;;;;;;;;;5018483;28;20204;-70
2023/11/10 00:02:29;;;;;;;2.40;1.53;;;;;;;;;;5023571;28;20270;-69
2023/11/10 00:04:58;;;;;;;3.33;1.63;;;;;;;;;;5018644;28;20254;-67
2023/11/10 00:07:26;;;;;;;2.27;1.43;;;;;;;;;;5021803;28;20278;-68
2023/11/10 00:09:55;;;;;;;1.50;1.40;;;;;;;;;;5021682;28;20207;-67
2023/11/10 00:12:24;;;;;;;2.90;1.50;;;;;;;;;;5029497;28;20306;-70
2023/11/10 00:14:52;;;;;;;4.03;1.30;;;;;;;;;;5034287;28;20234;-70
2023/11/10 00:17:20;;;;;;;1.40;1.30;;;;;;;;;;5018349;28;20216;-70
2023/11/10 00:19:50;;;;;;;1.30;1.20;;;;;;;;;;5018384;28;20236;-70
2023/11/10 00:22:18;;;;;;;1.30;1.30;;;;;;;;;;5018057;28;20673;-68
2023/11/10 00:24:47;;;;;;;2.20;1.20;;;;;;;;;;5018401;28;20211;-69
2023/11/10 00:27:16;;;;;;;1.33;1.23;;;;;;;;;;5022264;28;20294;-70
2023/11/10 00:29:45;;;;;;;1.43;1.33;;;;;;;;;;5027449;28;20649;-69
2023/11/10 00:32:13;;;;;;;1.53;1.00;;;;;;;;;;5036827;28;20765;-67
2023/11/10 00:34:42;;;;;;;2.43;1.17;;;;;;;;;;5027281;28;20677;-67
2023/11/10 00:37:12;;;;;;;3.43;1.40;;;;;;;;;;5036672;28;20294;-70
2023/11/10 00:39:40;;;;;;;3.00;1.40;;;;;;;;;;5036686;28;20726;-67
2023/11/10 00:42:08;;;;;;;1.83;1.00;;;;;;;;;;5033153;28;20682;-68
2023/11/10 00:44:37;;;;;;;2.47;1.07;;;;;;;;;;5024594;28;20200;-68
2023/11/10 00:47:05;;;;;;;2.47;1.20;;;;;;;;;;5022546;28;20549;-68
2023/11/10 00:49:33;;;;;;;1.63;1.50;;;;;;;;;;5036908;28;20263;-69
2023/11/10 00:52:01;;;;;;;2.60;1.17;;;;;;;;;;5032316;28;20302;-68
2023/11/10 00:54:31;;;;;;;2.27;1.50;;;;;;;;;;5020531;28;20282;-68
2023/11/10 00:56:59;;;;;;;3.37;1.43;;;;;;;;;;5034930;28;20566;-68
2023/11/10 00:59:28;;;;;;;3.90;1.40;;;;;;;;;;5017213;28;20291;-67
2023/11/10 01:01:56;;;;;;;1.23;1.13;;;;;;;;;;5017203;28;20235;-67
2023/11/10 01:04:24;;;;;;;2.30;1.40;;;;;;;;;;5020037;28;20240;-69
2023/11/10 01:06:53;;;;;;;1.50;1.30;;;;;;;;;;5025479;28;20287;-67
2023/11/10 01:09:21;;;;;;;2.40;1.13;;;;;;;;;;5036703;28;20290;-68
2023/11/10 01:11:51;;;;;;;1.70;1.43;;;;;;;;;;5034129;28;20223;-67
2023/11/10 01:14:20;;;;;;;2.07;1.03;;;;;;;;;;5031659;28;20674;-67
2023/11/10 01:16:49;;;;;;;5.07;1.20;;;;;;;;;;5026289;28;20214;-68
2023/11/10 01:19:17;;;;;;;1.57;1.27;;;;;;;;;;5036311;28;20253;-68
2023/11/10 01:21:46;;;;;;;1.50;1.40;;;;;;;;;;5036130;28;20259;-68
2023/11/10 01:24:16;;;;;;;3.17;1.30;;;;;;;;;;5024670;28;20259;-68
2023/11/10 01:26:44;;;;;;;1.53;1.23;;;;;;;;;;5019307;28;20196;-68
2023/11/10 01:29:14;;;;;;;2.10;1.30;;;;;;;;;;5036567;28;20286;-68
2023/11/10 01:31:44;;;;;;;2.10;1.03;;;;;;;;;;5036403;28;20227;-68
2023/11/10 01:34:12;;;;;;;1.30;1.10;;;;;;;;;;5022769;28;20667;-68
2023/11/10 01:36:41;;;;;;;1.37;1.03;;;;;;;;;;5017169;28;20240;-68
2023/11/10 01:39:10;;;;;;;3.10;1.23;;;;;;;;;;5038517;28;20211;-68
2023/11/10 01:41:39;;;;;;;1.47;1.10;;;;;;;;;;5031869;28;20220;-68
2023/11/10 01:44:07;;;;;;;0.90;0.90;;;;;;;;;;5041028;28;20253;-68
2023/11/10 01:46:45;;;;;;;3.63;1.40;;;;;;;;;;5027542;28;20683;-68
2023/11/10 01:49:14;;;;;;;0.97;0.97;;;;;;;;;;5020664;28;20208;-68
2023/11/10 01:51:44;;;;;;;1.40;1.30;;;;;;;;;;5027720;28;20252;-68
2023/11/10 01:54:13;;;;;;;0.87;0.87;;;;;;;;;;5028819;28;20235;-68
2023/11/10 01:56:42;;;;;;;1.30;1.20;;;;;;;;;;5030954;28;20235;-68
2023/11/10 01:59:12;;;;;;;2.57;1.23;;;;;;;;;;5024148;28;20682;-67
2023/11/10 02:01:41;;;;;;;4.27;1.07;;;;;;;;;;5035165;28;20314;-68
2023/11/10 02:04:12;;;;;;;1.47;0.70;;;;;;;;;;5025911;28;20227;-68
2023/11/10 02:06:41;;;;;;;0.77;0.77;;;;;;;;;;5020642;28;20212;-69
2023/11/10 02:09:10;;;;;;;0.80;0.80;;;;;;;;;;5024864;28;20208;-69
2023/11/10 02:11:39;;;;;;;2.23;1.00;;;;;;;;;;5020284;28;20792;-69
2023/11/10 02:14:07;;;;;;;1.07;0.80;;;;;;;;;;5020488;28;20283;-68
2023/11/10 02:16:36;;;;;;;1.47;1.00;;;;;;;;;;5020924;28;20260;-69
2023/11/10 02:19:05;;;;;;;1.80;1.27;;;;;;;;;;5031359;28;20634;-69
2023/11/10 02:21:35;;;;;;;1.30;0.83;;;;;;;;;;5040369;28;20250;-69
2023/11/10 02:24:07;;;;;;;1.07;0.93;;;;;;;;;;5040299;28;20227;-68
2023/11/10 02:26:38;;;;;;;1.20;1.10;;;;;;;;;;5031450;28;20271;-69
2023/11/10 02:29:07;;;;;;;0.87;0.73;;;;;;;;;;5019395;28;20202;-68
2023/11/10 02:31:36;;;;;;;0.97;0.80;;;;;;;;;;5026707;28;20223;-67
2023/11/10 02:34:04;;;;;;;0.93;0.87;;;;;;;;;;5027455;28;20231;-68
2023/11/10 02:36:33;;;;;;;1.07;0.80;;;;;;;;;;5032348;28;20245;-69
2023/11/10 02:39:04;;;;;;;1.83;1.07;;;;;;;;;;5038053;28;20218;-68
2023/11/10 02:41:35;;;;;;;0.87;0.80;;;;;;;;;;5032032;28;20223;-68
2023/11/10 02:44:05;;;;;;;3.00;0.90;;;;;;;;;;5039883;28;20231;-68
2023/11/10 02:46:33;;;;;;;1.93;0.97;;;;;;;;;;5039138;28;20266;-69
2023/11/10 02:49:04;;;;;;;1.10;1.00;;;;;;;;;;5038660;28;20211;-68
2023/11/10 02:51:33;;;;;;;1.37;1.00;;;;;;;;;;5018976;28;20262;-69
2023/11/10 02:54:03;;;;;;;1.33;1.10;;;;;;;;;;5019874;28;20738;-68
2023/11/10 02:56:31;;;;;;;1.23;1.13;;;;;;;;;;5018915;28;20208;-67
2023/11/10 02:58:59;;;;;;;1.60;0.83;;;;;;;;;;5027268;28;20582;-68
2023/11/10 03:01:29;;;;;;;1.33;0.80;;;;;;;;;;5034631;28;20344;-68
2023/11/10 03:03:58;;;;;;;0.80;0.80;;;;;;;;;;5026821;28;20224;-69
2023/11/10 03:06:26;;;;;;;1.73;0.80;;;;;;;;;;5022853;28;20235;-68
2023/11/10 03:08:55;;;;;;;2.07;1.03;;;;;;;;;;5019805;28;20201;-68
2023/11/10 03:11:24;;;;;;;0.63;0.63;;;;;;;;;;5019344;28;20228;-68
2023/11/10 03:13:54;;;;;;;0.63;0.63;;;;;;;;;;5019564;28;20227;-68
2023/11/10 03:16:23;;;;;;;0.63;0.63;;;;;;;;;;5030867;28;20208;-67
2023/11/10 03:18:53;;;;;;;2.23;0.67;;;;;;;;;;5038557;28;20211;-68
2023/11/10 03:21:23;;;;;;;0.67;0.67;;;;;;;;;;5026385;28;20234;-68
2023/11/10 03:23:54;;;;;;;0.50;0.50;;;;;;;;;;5031902;28;20236;-68
2023/11/10 03:26:23;;;;;;;0.87;0.87;;;;;;;;;;5029012;28;20230;-67
2023/11/10 03:28:51;;;;;;;0.70;0.70;;;;;;;;;;5034742;28;20196;-66
2023/11/10 03:31:19;;;;;;;0.80;0.60;;;;;;;;;;5034463;28;20311;-67
2023/11/10 03:33:47;;;;;;;0.90;0.50;;;;;;;;;;5026038;28;20230;-67
2023/11/10 03:36:17;;;;;;;0.40;0.40;;;;;;;;;;5038868;28;20235;-68
2023/11/10 03:38:46;;;;;;;0.30;0.30;;;;;;;;;;5026314;28;20292;-67
2023/11/10 03:41:14;;;;;;;1.10;0.60;;;;;;;;;;5023754;28;20232;-67
2023/11/10 03:43:43;;;;;;;0.30;0.30;;;;;;;;;;5020409;28;20658;-70
2023/11/10 03:46:12;;;;;;;1.97;0.63;;;;;;;;;;5038808;28;20222;-68
2023/11/10 03:48:40;;;;;;;0.50;0.50;;;;;;;;;;5037506;28;20208;-67
2023/11/10 03:51:10;;;;;;;1.20;0.50;;;;;;;;;;5038765;28;20235;-68
2023/11/10 03:53:42;;;;;;;0.50;0.50;;;;;;;;;;5038007;28;20235;-69
2023/11/10 03:56:10;;;;;;;0.67;0.67;;;;;;;;;;5038438;28;20239;-68
2023/11/10 03:58:40;;;;;;;0.40;0.40;;;;;;;;;;5023497;28;20296;-68
2023/11/10 04:01:13;;;;;;;0.63;0.30;;;;;;;;;;5021938;28;20303;-68
2023/11/10 04:03:42;;;;;;;0.40;0.40;;;;;;;;;;5037100;28;20204;-68
2023/11/10 04:06:11;;;;;;;0.37;0.37;;;;;;;;;;5037233;28;20294;-68
2023/11/10 04:08:40;;;;;;;0.50;0.40;;;;;;;;;;5031859;28;20204;-68
2023/11/10 04:11:10;;;;;;;1.87;0.40;;;;;;;;;;5018177;28;20243;-69
2023/11/10 04:13:40;;;;;;;0.87;0.60;;;;;;;;;;5018342;28;20730;-68
2023/11/10 04:16:16;;;;;;;1.27;0.70;;;;;;;;;;5018756;28;20291;-68
2023/11/10 04:18:45;;;;;;;1.43;0.50;;;;;;;;;;5018541;28;20295;-69
2023/11/10 04:21:14;;;;;;;0.70;0.70;;;;;;;;;;5018168;28;20228;-68
2023/11/10 04:23:42;;;;;;;0.60;0.60;;;;;;;;;;5018407;28;20240;-68
2023/11/10 04:26:13;;;;;;;0.63;0.40;;;;;;;;;;5019898;28;20291;-68
2023/11/10 04:28:41;;;;;;;2.43;0.57;;;;;;;;;;5031876;28;20204;-67
2023/11/10 04:31:13;;;;;;;0.80;0.77;;;;;;;;;;5027834;28;20274;-66
2023/11/10 04:33:44;;;;;;;1.93;0.67;;;;;;;;;;5037953;28;20214;-66
2023/11/10 04:36:14;;;;;;;0.90;0.80;;;;;;;;;;5026160;28;20247;-68
2023/11/10 04:38:47;;;;;;;0.93;0.90;;;;;;;;;;5021231;28;20204;-68
2023/11/10 04:41:17;;;;;;;2.33;1.27;;;;;;;;;;5020322;28;20219;-69
2023/11/10 04:43:46;;;;;;;0.97;0.80;;;;;;;;;;5017713;28;20228;-69
2023/11/10 04:46:14;;;;;;;0.50;0.50;;;;;;;;;;5021503;28;20686;-69
2023/11/10 04:48:42;;;;;;;0.87;0.73;;;;;;;;;;5028539;28;20709;-68
2023/11/10 04:51:11;;;;;;;1.00;0.70;;;;;;;;;;5017849;28;20228;-66
2023/11/10 04:53:41;;;;;;;0.60;0.60;;;;;;;;;;5017237;28;20204;-66
2023/11/10 04:56:16;;;;;;;1.43;0.77;;;;;;;;;;5017664;28;20262;-65
2023/11/10 04:58:45;;;;;;;2.00;0.80;;;;;;;;;;5021345;28;20655;-65
2023/11/10 05:01:14;;;;;;;0.80;0.70;;;;;;;;;;5017403;28;20314;-65
2023/11/10 05:03:44;;;;;;;1.10;0.80;;;;;;;;;;5016910;28;20652;-64
2023/11/10 05:06:12;;;;;;;1.13;0.93;;;;;;;;;;5017114;28;20630;-64
2023/11/10 05:08:41;;;;;;;0.80;0.77;;;;;;;;;;5024970;28;20204;-65
2023/11/10 05:11:11;;;;;;;1.13;1.03;;;;;;;;;;5030545;28;20262;-65
2023/11/10 05:13:40;;;;;;;1.20;0.80;;;;;;;;;;5020262;28;20238;-66
2023/11/10 05:16:11;;;;;;;1.03;0.97;;;;;;;;;;5029297;28;20195;-65
2023/11/10 05:18:39;;;;;;;1.40;1.10;;;;;;;;;;5023217;28;20262;-65
2023/11/10 05:21:10;;;;;;;1.03;0.93;;;;;;;;;;5027812;28;20232;-65
2023/11/10 05:23:40;;;;;;;0.80;0.80;;;;;;;;;;5040547;28;20290;-68
2023/11/10 05:26:08;;;;;;;0.90;0.67;;;;;;;;;;5040013;28;20699;-66
2023/11/10 05:28:37;;;;;;;2.20;1.00;;;;;;;;;;5034786;28;20660;-65
2023/11/10 05:31:05;;;;;;;0.97;0.90;;;;;;;;;;5023086;28;20311;-65
2023/11/10 05:33:36;;;;;;;1.23;0.70;;;;;;;;;;5032136;28;20199;-65
2023/11/10 05:36:06;;;;;;;0.80;0.80;;;;;;;;;;5028932;28;20702;-65
2023/11/10 05:38:34;;;;;;;0.80;0.73;;;;;;;;;;5022565;28;20204;-67
2023/11/10 05:41:03;;;;;;;0.90;0.90;;;;;;;;;;5024206;28;20200;-67
2023/11/10 05:43:31;;;;;;;1.17;0.90;;;;;;;;;;5032658;28;20204;-65
2023/11/10 05:45:59;;;;;;;1.23;1.00;;;;;;;;;;5021140;28;20248;-65
2023/11/10 05:48:29;;;;;;;1.10;1.00;;;;;;;;;;5021284;28;20214;-65
2023/11/10 05:51:03;;;;;;;1.13;1.00;;;;;;;;;;5020936;28;20219;-66
2023/11/10 05:53:32;;;;;;;1.43;1.10;;;;;;;;;;5020798;28;20659;-65
2023/11/10 05:56:00;;;;;;;1.27;1.17;;;;;;;;;;5020702;28;20286;-65
2023/11/10 05:58:29;;;;;;;1.53;1.43;;;;;;;;;;5020962;28;20211;-66
2023/11/10 06:00:57;;;;;;;2.40;2.00;;;;;;;;;;5022408;28;20266;-64
2023/11/10 06:03:26;;;;;;;1.60;1.50;;;;;;;;;;5028808;28;20235;-68
2023/11/10 06:09:03;;;;;;;2.10;1.27;;;;;;;;;;4966462;28;20208;-68
2023/11/10 06:11:32;;;;;;;1.07;0.97;;;;;;;;;;5032727;28;20232;-67
2023/11/10 06:14:20;;;;;;;1.30;1.03;;;;;;;;;;5020501;28;20209;-66
2023/11/10 06:16:48;;;;;;;1.43;1.20;;;;;;;;;;5021136;28;20208;-66
2023/11/10 06:19:19;;;;;;;1.47;1.20;;;;;;;;;;5020312;28;20204;-66
2023/11/10 06:21:49;;;;;;;3.70;1.47;;;;;;;;;;5020163;28;20640;-69
2023/11/10 06:24:20;;;;;;;1.33;1.23;;;;;;;;;;5025923;28;20211;-67
2023/11/10 06:26:49;;;;;;;2.60;1.30;;;;;;;;;;5020228;28;20232;-69
2023/11/10 06:29:18;;;;;;;1.30;1.20;;;;;;;;;;5020008;28;20220;-69
2023/11/10 06:31:47;;;;;;;2.00;1.03;;;;;;;;;;5027522;28;20246;-69
2023/11/10 06:34:15;;;;;;;1.23;1.17;;;;;;;;;;5039657;28;20231;-69
2023/11/10 06:36:43;;;;;;;1.97;1.20;;;;;;;;;;5035814;28;20248;-69
2023/11/10 06:39:12;;;;;;;1.87;0.70;;;;;;;;;;5035181;28;20288;-69
2023/11/10 06:41:42;;;;;;;1.27;1.17;;;;;;;;;;5033484;28;20603;-68
2023/11/10 06:44:13;;;;;;;3.33;3.03;;;;;;;;;;5021967;28;20200;-68
2023/11/10 06:46:41;;;;;;;3.40;3.10;;;;;;;;;;5019042;28;20791;-69
2023/11/10 06:49:09;;;;;;;6.57;5.37;;;;;;;;;;5019123;28;20211;-69
2023/11/10 06:51:38;;;;;;;7.97;6.57;;;;;;;;;;5034868;28;20303;-69
2023/11/10 06:54:06;;;;;;;10.83;8.40;;;;;;;;;;5019265;28;20212;-69
2023/11/10 06:56:35;;;;;;;10.73;8.90;;;;;;;;;;5020459;28;20207;-69
2023/11/10 06:59:04;;;;;;;20.93;13.30;;;;;;;;;;5025357;28;20759;-69
2023/11/10 07:01:33;;;;;;;16.07;14.17;;;;;;;;;;5019272;28;20228;-69
2023/11/10 07:04:01;;;;;;;10.10;8.40;;;;;;;;;;5019090;28;20568;-69
2023/11/10 07:06:30;;;;;;;6.73;5.87;;;;;;;;;;5019802;28;20315;-69
2023/11/10 07:08:58;;;;;;;6.77;4.63;;;;;;;;;;5027290;28;20219;-69
2023/11/10 07:11:27;;;;;;;3.63;2.80;;;;;;;;;;5038635;28;20262;-69
2023/11/10 07:13:55;;;;;;;4.40;3.23;;;;;;;;;;5039031;28;20294;-69
2023/11/10 07:16:26;;;;;;;2.40;2.20;;;;;;;;;;5022744;28;20624;-65
2023/11/10 07:18:55;;;;;;;5.00;3.27;;;;;;;;;;5019377;28;20215;-68
2023/11/10 07:21:25;;;;;;;4.33;3.53;;;;;;;;;;5019561;28;20260;-65
2023/11/10 07:23:53;;;;;;;5.93;4.70;;;;;;;;;;5019253;28;20239;-66
2023/11/10 07:26:21;;;;;;;9.23;3.80;;;;;;;;;;5019251;28;20228;-69
2023/11/10 07:28:50;;;;;;;6.53;5.30;;;;;;;;;;5019494;28;20208;-69
2023/11/10 07:31:18;;;;;;;8.40;6.37;;;;;;;;;;5019489;28;20228;-69
2023/11/10 07:33:48;;;;;;;8.63;6.07;;;;;;;;;;5011132;28;20219;-67
2023/11/10 07:36:18;;;;;;;6.57;4.60;;;;;;;;;;5019025;28;20240;-68
2023/11/10 07:38:46;;;;;;;5.53;3.00;;;;;;;;;;5019082;28;20244;-69
2023/11/10 07:41:14;;;;;;;2.00;1.80;;;;;;;;;;5023426;28;20223;-69
2023/11/10 07:43:42;;;;;;;2.73;1.93;;;;;;;;;;5018941;28;20275;-69
2023/11/10 07:46:11;;;;;;;2.17;1.30;;;;;;;;;;5019184;28;20234;-68
2023/11/10 07:48:40;;;;;;;1.73;0.90;;;;;;;;;;5019718;28;20335;-69
2023/11/10 07:51:10;;;;;;;1.77;0.90;;;;;;;;;;5036292;28;20306;-69
2023/11/10 07:53:38;;;;;;;2.20;1.10;;;;;;;;;;5018660;28;20208;-69
2023/11/10 07:56:07;;;;;;;2.27;1.20;;;;;;;;;;5018532;28;20220;-69
2023/11/10 07:58:36;;;;;;;2.13;1.10;;;;;;;;;;5017783;28;20208;-68
2023/11/10 08:01:04;;;;;;;0.70;0.70;;;;;;;;;;5018098;28;20228;-68
2023/11/10 08:03:34;;;;;;;1.50;1.40;;;;;;;;;;5022331;28;20200;-68
2023/11/10 08:06:02;;;;;;;1.77;0.77;;;;;;;;;;5022582;28;20227;-69
2023/11/10 08:08:32;;;;;;;2.10;1.20;;;;;;;;;;5026930;28;20283;-67
2023/11/10 08:11:00;;;;;;;0.60;0.60;;;;;;;;;;5018437;28;20218;-65
2023/11/10 08:13:29;;;;;;;1.87;0.83;;;;;;;;;;5018443;28;20209;-65
2023/11/10 08:15:57;;;;;;;1.40;0.90;;;;;;;;;;5026381;28;20235;-67
2023/11/10 08:18:25;;;;;;;1.00;0.70;;;;;;;;;;5018360;28;20219;-67
2023/11/10 08:20:54;;;;;;;1.23;1.07;;;;;;;;;;5018559;28;20235;-70
2023/11/10 08:23:22;;;;;;;0.80;0.80;;;;;;;;;;5025470;28;20213;-69
2023/11/10 08:25:52;;;;;;;0.83;0.83;;;;;;;;;;5038007;28;20212;-71
2023/11/10 08:28:20;;;;;;;1.27;0.70;;;;;;;;;;5037986;28;20304;-71
2023/11/10 08:30:50;;;;;;;0.80;0.80;;;;;;;;;;5037771;28;20262;-68
2023/11/10 08:33:18;;;;;;;1.07;0.97;;;;;;;;;;5038145;28;20212;-71
2023/11/10 08:35:46;;;;;;;1.23;1.07;;;;;;;;;;5029997;28;20278;-72
2023/11/10 08:38:15;;;;;;;0.93;0.70;;;;;;;;;;5038032;28;20287;-68
2023/11/10 08:40:44;;;;;;;2.13;1.30;;;;;;;;;;5027996;28;20662;-71
2023/11/10 08:43:14;;;;;;;1.03;0.70;;;;;;;;;;5023673;28;20667;-72
2023/11/10 08:45:43;;;;;;;1.57;0.73;;;;;;;;;;5018052;28;20291;-70
2023/11/10 08:48:11;;;;;;;1.87;0.80;;;;;;;;;;5017338;28;20715;-70
2023/11/10 08:50:39;;;;;;;0.43;0.43;;;;;;;;;;5019377;28;20306;-70
2023/11/10 08:53:09;;;;;;;0.73;0.70;;;;;;;;;;5033045;28;20241;-71
2023/11/10 08:55:37;;;;;;;0.70;0.70;;;;;;;;;;5037730;28;20211;-70
2023/11/10 08:58:06;;;;;;;1.00;0.90;;;;;;;;;;5031154;28;20253;-70
2023/11/10 09:00:36;;;;;;;0.83;0.70;;;;;;;;;;5037980;28;20213;-71
2023/11/10 09:03:05;;;;;;;0.73;0.73;;;;;;;;;;5034025;28;20231;-70
2023/11/10 09:05:33;;;;;;;0.80;0.80;;;;;;;;;;5036840;28;20208;-70
2023/11/10 09:08:01;;;;;;;1.47;0.80;;;;;;;;;;5034439;28;20227;-70
2023/11/10 09:10:30;;;;;;;0.50;0.50;;;;;;;;;;5017211;28;20200;-71
2023/11/10 09:12:59;;;;;;;1.30;0.77;;;;;;;;;;5028710;28;20224;-70
2023/11/10 09:15:27;;;;;;;1.10;0.60;;;;;;;;;;5026202;28;20208;-71
2023/11/10 09:18:02;;;;;;;1.00;1.00;;;;;;;;;;5017408;28;20205;-70
2023/11/10 09:20:30;;;;;;;4.93;0.93;;;;;;;;;;5017805;28;20239;-71
2023/11/10 09:23:01;;;;;;;1.47;0.93;;;;;;;;;;5017470;28;20271;-71
2023/11/10 09:25:30;;;;;;;0.57;0.50;;;;;;;;;;5017428;28;20656;-70
2023/11/10 09:27:58;;;;;;;0.90;0.83;;;;;;;;;;5017421;28;20232;-71
2023/11/10 09:30:28;;;;;;;0.60;0.60;;;;;;;;;;5017539;28;20215;-71
2023/11/10 09:32:57;;;;;;;1.80;0.80;;;;;;;;;;5036780;28;20238;-70
2023/11/10 09:35:27;;;;;;;0.63;0.63;;;;;;;;;;5037075;28;20670;-69
2023/11/10 09:37:56;;;;;;;1.07;0.90;;;;;;;;;;5037156;28;20238;-69
2023/11/10 09:40:24;;;;;;;1.23;0.90;;;;;;;;;;5037157;28;20258;-68
2023/11/10 09:42:56;;;;;;;0.83;0.83;;;;;;;;;;5019072;28;20256;-69
2023/11/10 09:45:25;;;;;;;0.90;0.90;;;;;;;;;;5017550;28;20291;-69
2023/11/10 09:47:56;;;;;;;0.70;0.70;;;;;;;;;;5020410;28;20231;-70
2023/11/10 09:50:28;;;;;;;0.70;0.70;;;;;;;;;;5037500;28;20208;-70
2023/11/10 09:52:58;;;;;;;0.70;0.70;;;;;;;;;;5037341;28;20235;-69
2023/11/10 09:55:27;;;;;;;1.03;0.70;;;;;;;;;;5037086;28;20215;-69
2023/11/10 09:57:55;;;;;;;3.33;1.40;;;;;;;;;;5037288;28;20230;-69
2023/11/10 10:00:24;;;;;;;1.77;1.00;;;;;;;;;;5038752;28;20211;-69
2023/11/10 10:02:52;;;;;;;2.90;0.83;;;;;;;;;;5025327;28;20231;-69
2023/11/10 10:05:20;;;;;;;2.40;0.70;;;;;;;;;;5025119;28;20215;-69
2023/11/10 10:07:50;;;;;;;1.60;0.80;;;;;;;;;;5020978;28;20236;-70
2023/11/10 10:10:20;;;;;;;1.17;1.07;;;;;;;;;;5020650;28;20232;-69
2023/11/10 10:12:48;;;;;;;1.40;1.30;;;;;;;;;;5020778;28;20260;-70
2023/11/10 10:15:25;;;;;;;2.43;1.20;;;;;;;;;;5026554;28;20209;-69
2023/11/10 10:17:54;;;;;;;0.80;0.80;;;;;;;;;;5021491;28;20232;-70
2023/11/10 10:20:22;;;;;;;0.97;0.97;;;;;;;;;;5020751;28;20230;-71
2023/11/10 10:22:53;;;;;;;1.60;0.93;;;;;;;;;;5031454;28;20238;-69
2023/11/10 10:25:21;;;;;;;1.43;1.20;;;;;;;;;;5040279;28;20290;-69
2023/11/10 10:27:50;;;;;;;1.43;0.87;;;;;;;;;;5040409;28;20318;-69
2023/11/10 10:30:19;;;;;;;1.13;1.00;;;;;;;;;;5040345;28;20239;-69
2023/11/10 10:32:48;;;;;;;1.77;1.00;;;;;;;;;;5039922;28;20262;-69
2023/11/10 10:35:16;;;;;;;2.43;1.20;;;;;;;;;;5040063;28;20208;-69
2023/11/10 10:37:45;;;;;;;5.07;1.20;;;;;;;;;;5039927;28;20210;-68
2023/11/10 10:40:16;;;;;;;3.33;1.20;;;;;;;;;;5025084;28;20215;-69
2023/11/10 10:42:45;;;;;;;1.83;1.00;;;;;;;;;;5027206;28;20656;-69
2023/11/10 10:45:13;;;;;;;1.80;1.20;;;;;;;;;;5020083;28;20213;-69
2023/11/10 10:47:44;;;;;;;1.43;1.33;;;;;;;;;;5020118;28;20580;-69
2023/11/10 10:50:13;;;;;;;1.90;1.30;;;;;;;;;;5020274;28;20239;-69
2023/11/10 10:52:42;;;;;;;3.80;1.67;;;;;;;;;;5019753;28;20234;-70
2023/11/10 10:55:11;;;;;;;2.07;1.00;;;;;;;;;;5019943;28;20204;-69
2023/11/10 10:57:41;;;;;;;3.80;1.50;;;;;;;;;;5037653;28;20200;-69
2023/11/10 11:00:15;;;;;;;2.23;1.20;;;;;;;;;;5039714;28;20208;-70
2023/11/10 11:02:49;;;;;;;1.70;1.30;;;;;;;;;;5024935;28;20719;-69
2023/11/10 11:05:28;;;;;;;1.50;1.40;;;;;;;;;;5019977;28;20359;-69
2023/11/10 11:08:08;;;;;;;2.07;1.60;;;;;;;;;;5019526;28;20774;-69
2023/11/10 11:10:48;;;;;;;2.53;1.50;;;;;;;;;;5019692;28;20200;-70
2023/11/10 11:13:31;;;;;;;2.00;1.10;;;;;;;;;;5034427;28;20207;-70
2023/11/10 11:16:10;;;;;;;4.03;1.17;;;;;;;;;;5025574;28;20207;-70
2023/11/10 11:18:44;;;;;;;3.93;1.13;;;;;;;;;;5038296;28;20207;-70
2023/11/10 11:21:13;;;;;;;1.73;0.93;;;;;;;;;;5019712;28;20289;-69
2023/11/10 11:23:42;;;;;;;4.43;1.50;;;;;;;;;;5019377;28;20254;-70
2023/11/10 11:26:16;;;;;;;5.07;1.17;;;;;;;;;;5018882;28;20295;-69
2023/11/10 11:28:44;;;;;;;1.57;0.93;;;;;;;;;;5019183;28;20232;-69
2023/11/10 11:31:14;;;;;;;1.77;0.90;;;;;;;;;;5018975;28;20235;-69
2023/11/10 11:33:46;;;;;;;1.97;0.90;;;;;;;;;;5019220;28;20287;-70
2023/11/10 11:36:18;;;;;;;4.13;0.80;;;;;;;;;;5019207;28;20240;-69
2023/11/10 11:38:46;;;;;;;1.27;0.80;;;;;;;;;;5019225;28;20232;-69
2023/11/10 11:41:15;;;;;;;2.00;0.60;;;;;;;;;;5019005;28;20230;-69
2023/11/10 11:43:50;;;;;;;6.30;0.90;;;;;;;;;;5018953;28;20208;-69
2023/11/10 11:46:20;;;;;;;1.63;0.50;;;;;;;;;;5018882;28;20689;-69
2023/11/10 11:48:48;;;;;;;4.23;0.70;;;;;;;;;;5018224;28;20695;-69
2023/11/10 11:51:17;;;;;;;1.50;0.80;;;;;;;;;;5018979;28;20239;-69
2023/11/10 11:53:45;;;;;;;2.30;1.00;;;;;;;;;;5027272;28;20271;-70
2023/11/10 11:56:14;;;;;;;5.43;0.80;;;;;;;;;;5018557;28;20290;-69
2023/11/10 11:58:42;;;;;;;2.57;1.10;;;;;;;;;;5020732;28;20283;-69
2023/11/10 12:01:11;;;;;;;3.07;0.90;;;;;;;;;;5036841;28;20291;-69
2023/11/10 12:03:42;;;;;;;4.93;1.00;;;;;;;;;;5018672;28;20220;-69
2023/11/10 12:06:10;;;;;;;1.77;0.80;;;;;;;;;;5018899;28;20238;-69
2023/11/10 12:08:39;;;;;;;4.10;1.10;;;;;;;;;;5018658;28;20232;-69
2023/11/10 12:11:07;;;;;;;1.53;0.87;;;;;;;;;;5018275;28;20228;-68
2023/11/10 12:13:36;;;;;;;1.83;1.10;;;;;;;;;;5018353;28;20246;-69
2023/11/10 12:16:08;;;;;;;1.40;0.70;;;;;;;;;;5021441;28;20210;-69
2023/11/10 12:18:37;;;;;;;8.20;1.53;;;;;;;;;;5018432;28;20238;-68
2023/11/10 12:21:08;;;;;;;1.37;0.80;;;;;;;;;;5021755;28;20232;-69
2023/11/10 12:23:37;;;;;;;3.90;1.03;;;;;;;;;;5017578;28;20731;-68
2023/11/10 12:26:05;;;;;;;3.83;1.47;;;;;;;;;;5018005;28;20210;-68
2023/11/10 12:28:35;;;;;;;2.57;1.50;;;;;;;;;;5025366;28;20327;-68
2023/11/10 12:31:04;;;;;;;2.73;0.90;;;;;;;;;;5016799;28;20713;-68
2023/11/10 12:33:33;;;;;;;3.20;1.00;;;;;;;;;;5017313;28;20200;-68
2023/11/10 12:36:02;;;;;;;1.80;0.80;;;;;;;;;;5017368;28;20240;-68
2023/11/10 12:38:35;;;;;;;1.37;0.77;;;;;;;;;;5017910;28;20682;-69
2023/11/10 12:41:03;;;;;;;2.07;1.00;;;;;;;;;;5018761;28;20701;-68
2023/11/10 12:43:32;;;;;;;4.40;0.80;;;;;;;;;;5017881;28;20214;-63
2023/11/10 12:46:09;;;;;;;1.13;0.60;;;;;;;;;;5020692;28;20286;-63
2023/11/10 12:48:37;;;;;;;1.53;0.70;;;;;;;;;;5018012;28;20266;-62
2023/11/10 12:51:06;;;;;;;2.17;0.60;;;;;;;;;;5017996;28;20295;-62
2023/11/10 12:53:35;;;;;;;1.17;0.63;;;;;;;;;;5017958;28;20208;-62
2023/11/10 12:56:04;;;;;;;2.60;0.83;;;;;;;;;;5030363;28;20286;-62
2023/11/10 12:58:33;;;;;;;1.20;0.80;;;;;;;;;;5037684;28;20213;-62
2023/11/10 13:01:01;;;;;;;2.53;0.73;;;;;;;;;;5037503;28;20290;-62
2023/11/10 13:03:29;;;;;;;1.50;0.63;;;;;;;;;;5035611;28;20211;-62
2023/11/10 13:05:59;;;;;;;3.13;0.80;;;;;;;;;;5018110;28;20612;-68
2023/11/10 13:08:27;;;;;;;6.97;2.07;;;;;;;;;;5017554;28;20208;-68
2023/11/10 13:10:58;;;;;;;2.23;1.40;;;;;;;;;;5017455;28;20231;-69
2023/11/10 13:13:27;;;;;;;1.90;0.60;;;;;;;;;;5018364;28;20210;-68
2023/11/10 13:15:55;;;;;;;0.87;0.87;;;;;;;;;;5018076;28;20215;-69
2023/11/10 13:18:23;;;;;;;2.80;1.93;;;;;;;;;;5017457;28;20706;-69
2023/11/10 13:20:52;;;;;;;2.30;0.90;;;;;;;;;;5023294;28;20279;-68
2023/11/10 13:23:20;;;;;;;2.17;0.70;;;;;;;;;;5025728;28;20232;-68
2023/11/10 13:25:51;;;;;;;4.17;0.70;;;;;;;;;;5026148;28;20196;-68
2023/11/10 13:28:20;;;;;;;1.67;0.80;;;;;;;;;;5027765;28;20200;-66
2023/11/10 13:30:57;;;;;;;1.57;1.00;;;;;;;;;;5026999;28;20279;-69
2023/11/10 13:33:25;;;;;;;3.37;1.03;;;;;;;;;;5027543;28;20674;-69
2023/11/10 13:35:56;;;;;;;1.90;0.80;;;;;;;;;;5031330;28;20232;-70
2023/11/10 13:38:25;;;;;;;3.30;0.50;;;;;;;;;;5032296;28;20266;-71
2023/11/10 13:40:57;;;;;;;3.30;0.90;;;;;;;;;;5020533;28;20257;-70
2023/11/10 13:43:27;;;;;;;0.80;0.60;;;;;;;;;;5020850;28;20196;-72
2023/11/10 13:45:55;;;;;;;1.13;0.53;;;;;;;;;;5020148;28;20678;-72
2023/11/10 13:48:24;;;;;;;1.07;0.60;;;;;;;;;;5030095;28;20246;-69
2023/11/10 13:50:52;;;;;;;1.23;0.60;;;;;;;;;;5029900;28;20234;-67
2023/11/10 13:53:21;;;;;;;1.63;0.63;;;;;;;;;;5020422;28;20209;-67
2023/11/10 13:55:50;;;;;;;0.70;0.70;;;;;;;;;;5020539;28;20230;-69
2023/11/10 13:58:20;;;;;;;1.67;0.83;;;;;;;;;;5020455;28;20584;-69
2023/11/10 14:00:52;;;;;;;1.07;0.50;;;;;;;;;;5020727;28;20268;-69
2023/11/10 14:03:21;;;;;;;1.70;0.97;;;;;;;;;;5020727;28;20290;-68
2023/11/10 14:05:52;;;;;;;1.27;0.90;;;;;;;;;;5023512;28;20204;-69
2023/11/10 14:08:21;;;;;;;1.53;0.77;;;;;;;;;;5040780;28;20215;-68
2023/11/10 14:10:49;;;;;;;2.10;0.90;;;;;;;;;;5020951;28;20773;-68
2023/11/10 14:13:17;;;;;;;5.10;1.40;;;;;;;;;;5020698;28;20208;-68
2023/11/10 14:15:45;;;;;;;1.07;0.77;;;;;;;;;;5029651;28;20290;-68
2023/11/10 14:18:17;;;;;;;1.73;0.80;;;;;;;;;;5020467;28;20243;-68
2023/11/10 14:20:48;;;;;;;0.60;0.60;;;;;;;;;;5030721;28;20287;-68
2023/11/10 14:23:17;;;;;;;1.93;0.67;;;;;;;;;;5040567;28;20211;-70
2023/11/10 14:25:46;;;;;;;1.90;0.70;;;;;;;;;;5032388;28;20218;-68
2023/11/10 14:28:15;;;;;;;0.60;0.60;;;;;;;;;;5040161;28;20267;-67
2023/11/10 14:30:43;;;;;;;2.30;0.67;;;;;;;;;;5040206;28;20231;-68
2023/11/10 14:33:12;;;;;;;2.20;0.87;;;;;;;;;;5040026;28;20219;-68
2023/11/10 14:35:42;;;;;;;1.00;0.70;;;;;;;;;;5040035;28;20251;-68
2023/11/10 14:38:12;;;;;;;3.80;0.90;;;;;;;;;;5026157;28;20295;-68
2023/11/10 14:40:42;;;;;;;2.57;0.80;;;;;;;;;;5020196;28;20236;-68
2023/11/10 14:43:14;;;;;;;0.83;0.80;;;;;;;;;;5027715;28;20296;-68
2023/11/10 14:45:44;;;;;;;3.20;0.90;;;;;;;;;;5019328;28;20207;-68
2023/11/10 14:48:13;;;;;;;1.57;0.87;;;;;;;;;;5019877;28;20651;-69
2023/11/10 14:50:43;;;;;;;3.93;1.00;;;;;;;;;;5019600;28;20231;-67
2023/11/10 14:53:16;;;;;;;2.10;0.70;;;;;;;;;;5038693;28;20267;-68
2023/11/10 14:55:47;;;;;;;3.93;0.90;;;;;;;;;;5020615;28;20262;-68
2023/11/10 14:58:15;;;;;;;2.37;1.07;;;;;;;;;;5020596;28;20230;-68